sensor_id;sensor_type;location;lat;lon;timestamp;pressure;altitude;pressure_sealevel;temperature;humidity
25610;BME280;13479;49.044;8.716;2023-02-11T05:02:22;101004.44;;;2.35;65.43
25610;BME280;13479;49.044;8.716;2023-02-11T05:04:48;101028.81;;;2.40;64.72
25610;BME280;13479;49.044;8.716;2023-02-11T05:07:13;101029.38;;;2.56;63.91
25610;BME280;13479;49.044;8.716;2023-02-11T05:09:38;101034.28;;;2.72;63.17
25610;BME280;13479;49.044;8.716;2023-02-11T05:12:04;101021.72;;;2.86;61.94
25610;BME280;13479;49.044;8.716;2023-02-11T05:14:29;100991.34;;;2.76;62.56
25610;BME280;13479;49.044;8.716;2023-02-11T05:16:54;100976.28;;;2.86;62.03
25610;BME280;13479;49.044;8.716;2023-02-11T05:19:19;100983.09;;;2.93;61.38
25610;BME280;13479;49.044;8.716;2023-02-11T05:21:45;100957.88;;;2.87;61.90
25610;BME280;13479;49.044;8.716;2023-02-11T05:24:10;100939.56;;;2.86;61.69
25610;BME280;13479;49.044;8.716;2023-02-11T05:26:35;100929.84;;;2.88;61.82
25610;BME280;13479;49.044;8.716;2023-02-11T05:29:01;100910.59;;;2.89;62.51
25610;BME280;13479;49.044;8.716;2023-02-11T05:31:26;100893.66;;;3.02;61.90
25610;BME280;13479;49.044;8.716;2023-02-11T05:33:51;100923.44;;;3.01;62.32
25610;BME280;13479;49.044;8.716;2023-02-11T05:36:16;100941.06;;;2.96;62.38
25610;BME280;13479;49.044;8.716;2023-02-11T05:38:42;100930.47;;;2.99;62.90
25610;BME280;13479;49.044;8.716;2023-02-11T05:41:08;100902.38;;;3.04;62.89
25610;BME280;13479;49.044;8.716;2023-02-11T05:43:34;100881.25;;;3.09;62.98
25610;BME280;13479;49.044;8.716;2023-02-11T05:46:00;100886.25;;;3.20;62.59
25610;BME280;13479;49.044;8.716;2023-02-11T05:48:26;100907.91;;;3.28;62.55
25610;BME280;13479;49.044;8.716;2023-02-11T05:50:51;100912.84;;;3.39;62.64
25610;BME280;13479;49.044;8.716;2023-02-11T05:53:16;100958.97;;;3.51;61.77
25610;BME280;13479;49.044;8.716;2023-02-11T05:55:41;100982.66;;;3.48;61.70
25610;BME280;13479;49.044;8.716;2023-02-11T05:58:08;100980.75;;;3.54;61.29
25610;BME280;13479;49.044;8.716;2023-02-11T06:00:34;100977.94;;;3.62;60.90
25610;BME280;13479;49.044;8.716;2023-02-11T06:03:00;100971.78;;;3.63;60.77
25610;BME280;13479;49.044;8.716;2023-02-11T06:05:25;100962.81;;;3.70;60.92
25610;BME280;13479;49.044;8.716;2023-02-11T06:07:51;100965.31;;;3.77;60.19
25610;BME280;13479;49.044;8.716;2023-02-11T06:10:16;100967.75;;;3.83;60.31
25610;BME280;13479;49.044;8.716;2023-02-11T06:12:41;100957.13;;;3.88;59.87
25610;BME280;13479;49.044;8.716;2023-02-11T06:15:07;100947.56;;;3.85;60.11
25610;BME280;13479;49.044;8.716;2023-02-11T06:17:32;100939.69;;;3.83;59.70
25610;BME280;13479;49.044;8.716;2023-02-11T06:20:01;100936.97;;;3.88;59.86
25610;BME280;13479;49.044;8.716;2023-02-11T06:22:27;100958.00;;;3.88;60.23
25610;BME280;13479;49.044;8.716;2023-02-11T06:24:52;100966.94;;;3.81;60.07
25610;BME280;13479;49.044;8.716;2023-02-11T06:27:17;100945.91;;;3.81;60.25
25610;BME280;13479;49.044;8.716;2023-02-11T06:29:43;100928.34;;;3.83;59.94
25610;BME280;13479;49.044;8.716;2023-02-11T06:32:09;100938.00;;;3.82;59.85
25610;BME280;13479;49.044;8.716;2023-02-11T06:34:34;100930.06;;;3.84;59.71
25610;BME280;13479;49.044;8.716;2023-02-11T06:36:59;100933.72;;;3.78;59.86
25610;BME280;13479;49.044;8.716;2023-02-11T06:39:24;100939.94;;;3.74;59.38
25610;BME280;13479;49.044;8.716;2023-02-11T06:41:50;100939.09;;;3.74;59.46
25610;BME280;13479;49.044;8.716;2023-02-11T06:44:15;100939.88;;;3.77;58.79
25610;BME280;13479;49.044;8.716;2023-02-11T06:46:40;100943.47;;;3.73;59.08
25610;BME280;13479;49.044;8.716;2023-02-11T06:49:05;100936.50;;;3.72;59.85
25610;BME280;13479;49.044;8.716;2023-02-11T06:51:31;100935.91;;;3.62;59.48
25610;BME280;13479;49.044;8.716;2023-02-11T06:53:56;100925.53;;;3.56;59.45
25610;BME280;13479;49.044;8.716;2023-02-11T06:56:22;100909.91;;;3.53;60.07
25610;BME280;13479;49.044;8.716;2023-02-11T06:58:54;100891.53;;;3.51;59.74
25610;BME280;13479;49.044;8.716;2023-02-11T07:01:20;100881.13;;;3.48;59.47
25610;BME280;13479;49.044;8.716;2023-02-11T07:03:45;100873.28;;;3.47;59.90
25610;BME280;13479;49.044;8.716;2023-02-11T07:06:17;100856.47;;;3.52;59.90
25610;BME280;13479;49.044;8.716;2023-02-11T07:08:43;100851.94;;;3.59;59.57
25610;BME280;13479;49.044;8.716;2023-02-11T07:11:13;100862.22;;;3.67;59.92
25610;BME280;13479;49.044;8.716;2023-02-11T07:13:39;100869.06;;;3.73;59.57
25610;BME280;13479;49.044;8.716;2023-02-11T07:16:07;100902.25;;;3.77;59.43
25610;BME280;13479;49.044;8.716;2023-02-11T07:18:32;100909.31;;;3.75;59.63
25610;BME280;13479;49.044;8.716;2023-02-11T07:20:58;100930.22;;;3.78;59.64
25610;BME280;13479;49.044;8.716;2023-02-11T07:23:23;100940.66;;;3.81;59.68
25610;BME280;13479;49.044;8.716;2023-02-11T07:25:48;100944.09;;;3.83;60.08
25610;BME280;13479;49.044;8.716;2023-02-11T07:28:14;100958.19;;;3.80;59.21
25610;BME280;13479;49.044;8.716;2023-02-11T07:30:39;100952.13;;;3.78;59.50
25610;BME280;13479;49.044;8.716;2023-02-11T07:33:04;100938.00;;;3.82;59.79
25610;BME280;13479;49.044;8.716;2023-02-11T07:35:29;100941.09;;;3.97;59.40
25610;BME280;13479;49.044;8.716;2023-02-11T07:37:55;100953.19;;;4.04;59.66
25610;BME280;13479;49.044;8.716;2023-02-11T07:40:20;100973.06;;;4.13;59.23
25610;BME280;13479;49.044;8.716;2023-02-11T07:42:45;100979.97;;;4.17;59.22
25610;BME280;13479;49.044;8.716;2023-02-11T07:45:10;100992.78;;;4.28;59.04
25610;BME280;13479;49.044;8.716;2023-02-11T07:47:37;100991.69;;;4.37;58.68
25610;BME280;13479;49.044;8.716;2023-02-11T07:50:03;100990.47;;;4.48;58.62
25610;BME280;13479;49.044;8.716;2023-02-11T07:52:29;100994.66;;;4.56;58.48
25610;BME280;13479;49.044;8.716;2023-02-11T07:54:55;100977.00;;;4.59;58.33
25610;BME280;13479;49.044;8.716;2023-02-11T07:57:20;100966.91;;;4.74;57.74
25610;BME280;13479;49.044;8.716;2023-02-11T07:59:45;100968.34;;;4.84;57.23
25610;BME280;13479;49.044;8.716;2023-02-11T08:02:11;100973.94;;;5.02;57.14
25610;BME280;13479;49.044;8.716;2023-02-11T08:04:36;100982.34;;;5.13;56.74
25610;BME280;13479;49.044;8.716;2023-02-11T08:07:01;100975.09;;;5.21;56.14
25610;BME280;13479;49.044;8.716;2023-02-11T08:09:26;100977.22;;;5.37;55.37
25610;BME280;13479;49.044;8.716;2023-02-11T08:11:52;100978.09;;;5.37;54.85
25610;BME280;13479;49.044;8.716;2023-02-11T08:14:17;100974.25;;;5.46;54.57
25610;BME280;13479;49.044;8.716;2023-02-11T08:16:42;100971.44;;;5.52;54.49
25610;BME280;13479;49.044;8.716;2023-02-11T08:19:13;100976.28;;;5.90;54.20
25610;BME280;13479;49.044;8.716;2023-02-11T08:21:39;100974.53;;;6.16;52.89
25610;BME280;13479;49.044;8.716;2023-02-11T08:24:05;100984.63;;;6.28;52.75
25610;BME280;13479;49.044;8.716;2023-02-11T08:26:31;100973.28;;;6.50;52.31
25610;BME280;13479;49.044;8.716;2023-02-11T08:29:00;100979.00;;;6.61;51.67
25610;BME280;13479;49.044;8.716;2023-02-11T08:31:32;100988.78;;;6.82;51.69
25610;BME280;13479;49.044;8.716;2023-02-11T08:33:57;100985.53;;;6.97;51.30
25610;BME280;13479;49.044;8.716;2023-02-11T08:36:25;100985.97;;;7.08;50.79
25610;BME280;13479;49.044;8.716;2023-02-11T08:38:57;100988.66;;;7.29;50.56
25610;BME280;13479;49.044;8.716;2023-02-11T08:41:30;100994.03;;;7.48;49.61
25610;BME280;13479;49.044;8.716;2023-02-11T08:43:55;100984.81;;;7.58;49.06
25610;BME280;13479;49.044;8.716;2023-02-11T08:46:20;100976.56;;;7.66;49.67
25610;BME280;13479;49.044;8.716;2023-02-11T08:48:46;100984.94;;;7.97;49.37
25610;BME280;13479;49.044;8.716;2023-02-11T08:51:17;100993.31;;;8.27;48.44
25610;BME280;13479;49.044;8.716;2023-02-11T08:53:44;101011.25;;;8.79;47.39
25610;BME280;13479;49.044;8.716;2023-02-11T08:56:11;101014.41;;;9.61;46.40
25610;BME280;13479;49.044;8.716;2023-02-11T08:58:36;101024.69;;;10.54;44.25
25610;BME280;13479;49.044;8.716;2023-02-11T09:01:08;101034.31;;;11.36;42.70
25610;BME280;13479;49.044;8.716;2023-02-11T09:03:34;101032.59;;;12.12;41.07
25610;BME280;13479;49.044;8.716;2023-02-11T09:05:59;101036.59;;;13.74;38.76
25610;BME280;13479;49.044;8.716;2023-02-11T09:08:24;101039.47;;;15.00;36.01
25610;BME280;13479;49.044;8.716;2023-02-11T09:10:49;101030.25;;;16.70;33.93
25610;BME280;13479;49.044;8.716;2023-02-11T09:13:15;101025.63;;;18.44;31.61
25610;BME280;13479;49.044;8.716;2023-02-11T09:15:44;101033.28;;;19.89;29.45
25610;BME280;13479;49.044;8.716;2023-02-11T09:18:09;101025.84;;;21.14;27.52
25610;BME280;13479;49.044;8.716;2023-02-11T09:20:34;101040.06;;;22.15;25.53
25610;BME280;13479;49.044;8.716;2023-02-11T09:23:00;101041.66;;;22.26;25.15
25610;BME280;13479;49.044;8.716;2023-02-11T09:25:25;101037.66;;;21.32;25.11
25610;BME280;13479;49.044;8.716;2023-02-11T09:27:50;101034.97;;;20.48;25.41
25610;BME280;13479;49.044;8.716;2023-02-11T09:30:20;101027.50;;;20.70;25.47
25610;BME280;13479;49.044;8.716;2023-02-11T09:32:45;101030.72;;;20.83;25.00
25610;BME280;13479;49.044;8.716;2023-02-11T09:35:10;101025.91;;;20.39;25.29
25610;BME280;13479;49.044;8.716;2023-02-11T09:37:36;101024.53;;;20.25;25.71
25610;BME280;13479;49.044;8.716;2023-02-11T09:40:01;101019.81;;;19.60;25.91
25610;BME280;13479;49.044;8.716;2023-02-11T09:44:55;101014.78;;;17.82;28.22
25610;BME280;13479;49.044;8.716;2023-02-11T09:47:31;100999.69;;;17.16;28.74
25610;BME280;13479;49.044;8.716;2023-02-11T09:50:11;100998.53;;;16.52;29.87
25610;BME280;13479;49.044;8.716;2023-02-11T09:52:49;100989.06;;;16.25;30.78
25610;BME280;13479;49.044;8.716;2023-02-11T09:55:26;100987.25;;;15.79;31.20
25610;BME280;13479;49.044;8.716;2023-02-11T09:57:53;100987.31;;;15.30;32.08
25610;BME280;13479;49.044;8.716;2023-02-11T10:00:26;100993.31;;;14.85;32.85
25610;BME280;13479;49.044;8.716;2023-02-11T10:03:02;100983.72;;;14.44;33.58
25610;BME280;13479;49.044;8.716;2023-02-11T10:11:35;100976.03;;;14.39;33.62
25610;BME280;13479;49.044;8.716;2023-02-11T10:22:37;100985.13;;;16.52;31.34
25610;BME280;13479;49.044;8.716;2023-02-11T10:25:17;101008.34;;;17.73;29.66
25610;BME280;13479;49.044;8.716;2023-02-11T10:27:44;101028.13;;;18.67;28.41
25610;BME280;13479;49.044;8.716;2023-02-11T10:30:36;101033.69;;;19.45;27.04
25610;BME280;13479;49.044;8.716;2023-02-11T10:33:14;101029.66;;;20.28;26.15
25610;BME280;13479;49.044;8.716;2023-02-11T10:35:43;101036.28;;;20.72;25.51
25610;BME280;13479;49.044;8.716;2023-02-11T10:38:10;101040.44;;;21.40;24.91
25610;BME280;13479;49.044;8.716;2023-02-11T10:40:35;101039.00;;;21.82;23.96
25610;BME280;13479;49.044;8.716;2023-02-11T10:43:03;101040.91;;;21.89;23.61
25610;BME280;13479;49.044;8.716;2023-02-11T10:45:53;101039.06;;;21.72;23.60
25610;BME280;13479;49.044;8.716;2023-02-11T10:51:25;101028.50;;;21.60;24.08
25610;BME280;13479;49.044;8.716;2023-02-11T10:56:33;101012.69;;;21.66;24.07
25610;BME280;13479;49.044;8.716;2023-02-11T10:59:27;101006.81;;;21.70;24.02
25610;BME280;13479;49.044;8.716;2023-02-11T11:01:57;100997.59;;;21.63;24.23
25610;BME280;13479;49.044;8.716;2023-02-11T11:04:33;101013.19;;;21.33;24.18
25610;BME280;13479;49.044;8.716;2023-02-11T11:07:20;101010.44;;;21.25;24.72
25610;BME280;13479;49.044;8.716;2023-02-11T11:10:00;100996.69;;;21.18;24.91
25610;BME280;13479;49.044;8.716;2023-02-11T11:12:31;101002.06;;;21.00;24.96
25610;BME280;13479;49.044;8.716;2023-02-11T11:15:12;101002.78;;;20.74;25.45
25610;BME280;13479;49.044;8.716;2023-02-11T11:17:38;101001.66;;;20.67;25.87
25610;BME280;13479;49.044;8.716;2023-02-11T11:20:30;100994.00;;;20.62;25.38
25610;BME280;13479;49.044;8.716;2023-02-11T11:23:20;100991.63;;;20.49;26.11
25610;BME280;13479;49.044;8.716;2023-02-11T11:26:09;100984.09;;;20.25;26.29
25610;BME280;13479;49.044;8.716;2023-02-11T11:28:48;100973.81;;;20.01;26.76
25610;BME280;13479;49.044;8.716;2023-02-11T11:32:03;100973.84;;;19.71;27.08
25610;BME280;13479;49.044;8.716;2023-02-11T11:34:19;100961.69;;;19.18;27.88
25610;BME280;13479;49.044;8.716;2023-02-11T11:36:45;100963.91;;;18.83;28.33
25610;BME280;13479;49.044;8.716;2023-02-11T11:39:22;100969.72;;;18.48;28.71
25610;BME280;13479;49.044;8.716;2023-02-11T11:42:00;100951.72;;;17.86;29.56
25610;BME280;13479;49.044;8.716;2023-02-11T11:44:36;100940.03;;;17.12;30.78
25610;BME280;13479;49.044;8.716;2023-02-11T11:49:43;100929.91;;;15.81;32.92
25610;BME280;13479;49.044;8.716;2023-02-11T11:52:19;100922.13;;;15.31;33.84
25610;BME280;13479;49.044;8.716;2023-02-11T11:54:55;100925.28;;;14.76;34.85
25610;BME280;13479;49.044;8.716;2023-02-11T11:57:25;100918.66;;;14.19;35.54
25610;BME280;13479;49.044;8.716;2023-02-11T11:59:52;100921.91;;;13.85;36.29
25610;BME280;13479;49.044;8.716;2023-02-11T12:02:28;100916.88;;;13.42;37.12
25610;BME280;13479;49.044;8.716;2023-02-11T12:05:26;100909.34;;;12.94;38.15
25610;BME280;13479;49.044;8.716;2023-02-11T12:08:12;100905.94;;;12.64;39.19
25610;BME280;13479;49.044;8.716;2023-02-11T12:10:56;100907.31;;;12.43;40.11
25610;BME280;13479;49.044;8.716;2023-02-11T12:24:48;100887.22;;;11.50;42.51
25610;BME280;13479;49.044;8.716;2023-02-11T12:32:40;100880.25;;;11.33;42.90
25610;BME280;13479;49.044;8.716;2023-02-11T12:35:27;100871.88;;;11.25;43.52
25610;BME280;13479;49.044;8.716;2023-02-11T12:41:03;100867.38;;;11.11;44.31
25610;BME280;13479;49.044;8.716;2023-02-11T12:43:38;100855.59;;;11.01;44.73
25610;BME280;13479;49.044;8.716;2023-02-11T12:46:31;100854.31;;;10.92;45.33
25610;BME280;13479;49.044;8.716;2023-02-11T12:50:01;100860.50;;;10.76;45.62
25610;BME280;13479;49.044;8.716;2023-02-11T12:52:23;100855.56;;;10.70;46.84
25610;BME280;13479;49.044;8.716;2023-02-11T12:55:01;100856.50;;;10.69;46.93
25610;BME280;13479;49.044;8.716;2023-02-11T12:57:31;100860.53;;;10.60;47.05
25610;BME280;13479;49.044;8.716;2023-02-11T13:00:15;100843.41;;;10.50;47.40
25610;BME280;13479;49.044;8.716;2023-02-11T13:05:26;100831.25;;;10.30;47.57
25610;BME280;13479;49.044;8.716;2023-02-11T13:08:03;100834.66;;;10.32;47.83
25610;BME280;13479;49.044;8.716;2023-02-11T13:10:35;100830.91;;;10.36;47.73
25610;BME280;13479;49.044;8.716;2023-02-11T13:13:10;100828.22;;;10.36;47.44
25610;BME280;13479;49.044;8.716;2023-02-11T13:15:50;100837.91;;;10.37;47.48
25610;BME280;13479;49.044;8.716;2023-02-11T13:18:34;100838.97;;;10.50;47.35
25610;BME280;13479;49.044;8.716;2023-02-11T13:21:14;100833.53;;;10.68;47.72
25610;BME280;13479;49.044;8.716;2023-02-11T13:23:52;100833.06;;;10.92;46.54
25610;BME280;13479;49.044;8.716;2023-02-11T13:26:28;100846.56;;;11.03;46.75
25610;BME280;13479;49.044;8.716;2023-02-11T13:32:04;100850.81;;;11.36;46.12
25610;BME280;13479;49.044;8.716;2023-02-11T13:37:13;100876.09;;;11.43;45.17
25610;BME280;13479;49.044;8.716;2023-02-11T13:39:55;100870.88;;;11.42;45.04
25610;BME280;13479;49.044;8.716;2023-02-11T13:42:20;100867.16;;;11.30;45.97
25610;BME280;13479;49.044;8.716;2023-02-11T13:44:46;100873.59;;;11.26;45.13
25610;BME280;13479;49.044;8.716;2023-02-11T13:47:25;100876.97;;;11.13;45.41
25610;BME280;13479;49.044;8.716;2023-02-11T13:49:53;100867.47;;;11.09;45.97
25610;BME280;13479;49.044;8.716;2023-02-11T13:52:31;100857.38;;;11.00;46.04
25610;BME280;13479;49.044;8.716;2023-02-11T13:55:19;100846.75;;;11.00;46.47
25610;BME280;13479;49.044;8.716;2023-02-11T14:19:39;100844.50;;;11.08;46.83
25610;BME280;13479;49.044;8.716;2023-02-11T14:22:14;100836.75;;;11.20;46.62
25610;BME280;13479;49.044;8.716;2023-02-11T14:27:27;100844.25;;;11.27;46.59
25610;BME280;13479;49.044;8.716;2023-02-11T14:30:34;100854.03;;;11.27;46.24
25610;BME280;13479;49.044;8.716;2023-02-11T14:35:54;100857.09;;;11.35;46.15
25610;BME280;13479;49.044;8.716;2023-02-11T14:41:45;100893.09;;;11.41;46.02
25610;BME280;13479;49.044;8.716;2023-02-11T14:44:20;100885.03;;;11.42;45.90
25610;BME280;13479;49.044;8.716;2023-02-11T14:46:48;100877.63;;;11.48;45.84
25610;BME280;13479;49.044;8.716;2023-02-11T14:49:35;100882.84;;;11.35;46.38
25610;BME280;13479;49.044;8.716;2023-02-11T14:57:31;100865.22;;;11.18;47.00
25610;BME280;13479;49.044;8.716;2023-02-11T14:59:59;100877.38;;;11.22;46.63
25610;BME280;13479;49.044;8.716;2023-02-11T15:02:33;100866.38;;;11.28;46.74
25610;BME280;13479;49.044;8.716;2023-02-11T15:07:48;100852.59;;;11.21;47.17
25610;BME280;13479;49.044;8.716;2023-02-11T15:10:22;100854.38;;;11.21;47.28
25610;BME280;13479;49.044;8.716;2023-02-11T15:12:50;100873.78;;;11.23;47.10
25610;BME280;13479;49.044;8.716;2023-02-11T15:15:16;100872.44;;;11.16;47.19
25610;BME280;13479;49.044;8.716;2023-02-11T15:17:42;100866.50;;;11.10;47.25
25610;BME280;13479;49.044;8.716;2023-02-11T15:20:18;100869.28;;;11.09;47.08
25610;BME280;13479;49.044;8.716;2023-02-11T15:22:46;100865.56;;;10.97;47.36
25610;BME280;13479;49.044;8.716;2023-02-11T15:25:15;100868.22;;;10.97;48.09
25610;BME280;13479;49.044;8.716;2023-02-11T15:27:52;100872.59;;;10.82;48.37
25610;BME280;13479;49.044;8.716;2023-02-11T15:32:55;100868.06;;;10.68;48.81
25610;BME280;13479;49.044;8.716;2023-02-11T15:35:42;100866.53;;;10.64;48.77
25610;BME280;13479;49.044;8.716;2023-02-11T15:38:10;100869.97;;;10.50;48.67
25610;BME280;13479;49.044;8.716;2023-02-11T15:40:36;100863.97;;;10.46;48.91
25610;BME280;13479;49.044;8.716;2023-02-11T15:43:07;100869.28;;;10.46;48.99
25610;BME280;13479;49.044;8.716;2023-02-11T15:45:38;100866.13;;;10.40;49.30
25610;BME280;13479;49.044;8.716;2023-02-11T15:51:04;100862.91;;;10.33;50.10
25610;BME280;13479;49.044;8.716;2023-02-11T15:53:41;100868.41;;;10.30;50.06
25610;BME280;13479;49.044;8.716;2023-02-11T15:56:16;100874.06;;;10.24;50.13
25610;BME280;13479;49.044;8.716;2023-02-11T15:58:45;100880.41;;;10.21;50.07
25610;BME280;13479;49.044;8.716;2023-02-11T16:01:12;100869.41;;;10.11;50.00
25610;BME280;13479;49.044;8.716;2023-02-11T16:03:39;100868.56;;;10.11;50.15
25610;BME280;13479;49.044;8.716;2023-02-11T16:06:22;100882.25;;;10.03;50.13
25610;BME280;13479;49.044;8.716;2023-02-11T16:08:59;100881.03;;;9.93;50.48
25610;BME280;13479;49.044;8.716;2023-02-11T16:11:54;100879.22;;;9.93;50.47
25610;BME280;13479;49.044;8.716;2023-02-11T16:17:11;100889.75;;;9.79;50.82
25610;BME280;13479;49.044;8.716;2023-02-11T16:19:45;100934.53;;;10.34;48.99
25610;BME280;13479;49.044;8.716;2023-02-11T16:22:37;100924.03;;;9.99;49.84
25610;BME280;13479;49.044;8.716;2023-02-11T16:25:04;100907.03;;;9.86;50.35
25610;BME280;13479;49.044;8.716;2023-02-11T16:27:40;100903.84;;;9.79;50.29
25610;BME280;13479;49.044;8.716;2023-02-11T16:30:21;100902.22;;;9.77;50.69
25610;BME280;13479;49.044;8.716;2023-02-11T16:32:47;100894.41;;;9.73;51.01
25610;BME280;13479;49.044;8.716;2023-02-11T16:35:13;100903.72;;;9.65;50.84
25610;BME280;13479;49.044;8.716;2023-02-11T16:37:38;100895.22;;;9.58;51.00
25610;BME280;13479;49.044;8.716;2023-02-11T16:40:03;100886.41;;;9.57;51.19
25610;BME280;13479;49.044;8.716;2023-02-11T16:42:29;100900.59;;;9.56;51.32
25610;BME280;13479;49.044;8.716;2023-02-11T16:44:54;100897.34;;;9.51;51.20
25610;BME280;13479;49.044;8.716;2023-02-11T16:47:24;100900.22;;;9.47;51.19
25610;BME280;13479;49.044;8.716;2023-02-11T16:49:50;100907.19;;;9.49;51.51
25610;BME280;13479;49.044;8.716;2023-02-11T16:52:17;100902.47;;;9.54;51.40
25610;BME280;13479;49.044;8.716;2023-02-11T16:54:42;100912.16;;;9.55;51.21
25610;BME280;13479;49.044;8.716;2023-02-11T16:57:12;100905.22;;;9.53;51.63
25610;BME280;13479;49.044;8.716;2023-02-11T16:59:38;100903.97;;;9.42;51.99
25610;BME280;13479;49.044;8.716;2023-02-11T17:02:03;100895.72;;;9.31;52.05
25610;BME280;13479;49.044;8.716;2023-02-11T17:04:30;100892.59;;;9.23;52.93
25610;BME280;13479;49.044;8.716;2023-02-11T17:06:57;100888.75;;;9.11;53.08
25610;BME280;13479;49.044;8.716;2023-02-11T17:09:25;100893.44;;;9.06;53.59
25610;BME280;13479;49.044;8.716;2023-02-11T17:11:50;100883.84;;;9.03;53.68
25610;BME280;13479;49.044;8.716;2023-02-11T17:14:17;100885.78;;;9.00;53.51
25610;BME280;13479;49.044;8.716;2023-02-11T17:16:43;100889.50;;;8.95;53.36
25610;BME280;13479;49.044;8.716;2023-02-11T17:19:15;100883.59;;;8.90;54.11
25610;BME280;13479;49.044;8.716;2023-02-11T17:21:42;100893.28;;;8.91;54.13
25610;BME280;13479;49.044;8.716;2023-02-11T17:24:08;100885.38;;;8.90;53.78
25610;BME280;13479;49.044;8.716;2023-02-11T17:26:33;100889.97;;;8.86;53.89
25610;BME280;13479;49.044;8.716;2023-02-11T17:29:01;100892.00;;;8.81;53.93
25610;BME280;13479;49.044;8.716;2023-02-11T17:31:26;100886.16;;;8.74;54.22
25610;BME280;13479;49.044;8.716;2023-02-11T17:33:51;100890.75;;;8.71;54.23
25610;BME280;13479;49.044;8.716;2023-02-11T17:36:16;100880.16;;;8.71;54.35
25610;BME280;13479;49.044;8.716;2023-02-11T17:38:42;100889.03;;;8.70;54.63
25610;BME280;13479;49.044;8.716;2023-02-11T17:41:07;100880.22;;;8.69;54.85
25610;BME280;13479;49.044;8.716;2023-02-11T17:43:32;100893.31;;;8.72;54.47
25610;BME280;13479;49.044;8.716;2023-02-11T17:45:57;100892.28;;;8.75;54.96
25610;BME280;13479;49.044;8.716;2023-02-11T17:48:23;100902.59;;;8.81;54.41
25610;BME280;13479;49.044;8.716;2023-02-11T17:50:49;100917.72;;;8.79;54.27
25610;BME280;13479;49.044;8.716;2023-02-11T17:53:14;100922.22;;;8.77;54.07
25610;BME280;13479;49.044;8.716;2023-02-11T17:55:40;100922.53;;;8.71;54.56
25610;BME280;13479;49.044;8.716;2023-02-11T17:58:05;100914.72;;;8.68;54.64
25610;BME280;13479;49.044;8.716;2023-02-11T18:00:31;100911.19;;;8.67;54.84
25610;BME280;13479;49.044;8.716;2023-02-11T18:02:56;100912.22;;;8.64;54.69
25610;BME280;13479;49.044;8.716;2023-02-11T18:05:22;100920.16;;;8.64;54.64
25610;BME280;13479;49.044;8.716;2023-02-11T18:07:49;100919.66;;;8.56;55.02
25610;BME280;13479;49.044;8.716;2023-02-11T18:10:15;100914.78;;;8.47;55.14
25610;BME280;13479;49.044;8.716;2023-02-11T18:12:40;100919.41;;;8.42;55.46
25610;BME280;13479;49.044;8.716;2023-02-11T18:15:05;100920.56;;;8.36;55.40
25610;BME280;13479;49.044;8.716;2023-02-11T18:17:31;100920.66;;;8.34;55.42
25610;BME280;13479;49.044;8.716;2023-02-11T18:19:56;100912.91;;;8.30;56.05
25610;BME280;13479;49.044;8.716;2023-02-11T18:22:23;100917.41;;;8.28;56.11
25610;BME280;13479;49.044;8.716;2023-02-11T18:24:52;100932.06;;;8.35;55.83
25610;BME280;13479;49.044;8.716;2023-02-11T18:27:18;100927.66;;;8.35;56.19
25610;BME280;13479;49.044;8.716;2023-02-11T18:29:44;100930.16;;;8.39;56.44
25610;BME280;13479;49.044;8.716;2023-02-11T18:32:09;100922.16;;;8.40;57.08
25610;BME280;13479;49.044;8.716;2023-02-11T18:34:34;100932.94;;;8.35;57.14
25610;BME280;13479;49.044;8.716;2023-02-11T18:37:00;100925.84;;;8.36;57.13
25610;BME280;13479;49.044;8.716;2023-02-11T18:39:25;100926.94;;;8.32;57.62
25610;BME280;13479;49.044;8.716;2023-02-11T18:41:53;100932.59;;;8.24;57.54
25610;BME280;13479;49.044;8.716;2023-02-11T18:44:19;100926.59;;;8.21;57.38
25610;BME280;13479;49.044;8.716;2023-02-11T18:46:47;100924.91;;;8.18;57.71
25610;BME280;13479;49.044;8.716;2023-02-11T18:49:13;100924.50;;;8.27;57.56
25610;BME280;13479;49.044;8.716;2023-02-11T18:51:38;100921.34;;;8.19;57.75
25610;BME280;13479;49.044;8.716;2023-02-11T18:54:03;100916.03;;;8.19;58.31
25610;BME280;13479;49.044;8.716;2023-02-11T18:56:29;100926.38;;;8.25;57.68
25610;BME280;13479;49.044;8.716;2023-02-11T18:58:54;100937.09;;;8.22;57.88
25610;BME280;13479;49.044;8.716;2023-02-11T19:01:23;100926.00;;;8.14;58.11
25610;BME280;13479;49.044;8.716;2023-02-11T19:03:50;100918.84;;;8.16;58.17
25610;BME280;13479;49.044;8.716;2023-02-11T19:06:18;100917.25;;;8.12;58.41
25610;BME280;13479;49.044;8.716;2023-02-11T19:08:44;100918.41;;;8.06;58.39
25610;BME280;13479;49.044;8.716;2023-02-11T19:11:10;100908.66;;;8.07;58.36
25610;BME280;13479;49.044;8.716;2023-02-11T19:13:36;100907.91;;;8.04;58.35
25610;BME280;13479;49.044;8.716;2023-02-11T19:16:06;100916.75;;;8.03;58.79
25610;BME280;13479;49.044;8.716;2023-02-11T19:18:32;100902.06;;;7.96;58.71
25610;BME280;13479;49.044;8.716;2023-02-11T19:20:57;100908.16;;;7.98;58.94
25610;BME280;13479;49.044;8.716;2023-02-11T19:23:22;100914.50;;;7.94;59.00
25610;BME280;13479;49.044;8.716;2023-02-11T19:25:48;100915.59;;;7.90;58.90
25610;BME280;13479;49.044;8.716;2023-02-11T19:28:14;100906.88;;;7.88;59.26
25610;BME280;13479;49.044;8.716;2023-02-11T19:30:40;100916.59;;;7.87;58.69
25610;BME280;13479;49.044;8.716;2023-02-11T19:33:05;100911.88;;;7.94;58.62
25610;BME280;13479;49.044;8.716;2023-02-11T19:35:33;100917.81;;;7.99;58.73
25610;BME280;13479;49.044;8.716;2023-02-11T19:38:03;100922.19;;;8.00;58.64
25610;BME280;13479;49.044;8.716;2023-02-11T19:40:28;100920.59;;;7.96;58.82
25610;BME280;13479;49.044;8.716;2023-02-11T19:42:53;100909.16;;;7.96;58.58
25610;BME280;13479;49.044;8.716;2023-02-11T19:45:19;100904.38;;;8.04;58.62
25610;BME280;13479;49.044;8.716;2023-02-11T19:47:44;100907.25;;;7.99;58.50
25610;BME280;13479;49.044;8.716;2023-02-11T19:50:10;100895.66;;;8.02;58.78